createdAt,value
2019-01-12T00:00:04.351Z,18.9
2019-01-12T00:00:54.961Z,18.9
2019-01-12T00:01:44.746Z,18.8
2019-01-12T00:02:34.213Z,18.8
2019-01-12T00:03:25.459Z,18.6
2019-01-12T00:04:14.618Z,18.5
2019-01-12T00:05:04.411Z,18.4
2019-01-12T00:05:55.591Z,18.3
2019-01-12T00:06:45.691Z,18.2
2019-01-12T00:07:34.898Z,18.1
2019-01-12T00:08:25.215Z,18
2019-01-12T00:09:16.801Z,17.9
2019-01-12T00:10:04.830Z,17.8
2019-01-12T00:10:54.875Z,17.8
2019-01-12T00:11:45.482Z,17.8
2019-01-12T00:12:34.973Z,17.8
2019-01-12T00:13:25.110Z,17.8
2019-01-12T00:14:15.097Z,17.8
2019-01-12T00:15:04.745Z,17.8
2019-01-12T00:15:54.747Z,17.7
2019-01-12T00:34:17.889Z,20.7
2019-01-12T00:35:07.374Z,20.8
2019-01-12T00:35:58.231Z,20.9
2019-01-12T00:36:48.004Z,20.9
2019-01-12T00:37:37.549Z,21.1
2019-01-12T00:40:08.262Z,21.3
2019-01-12T00:40:57.521Z,21.3
2019-01-12T00:41:47.272Z,21.3
2019-01-12T00:42:38.117Z,21.4
2019-01-12T00:43:28.765Z,21.4
2019-01-12T00:44:17.444Z,21.5
2019-01-12T00:45:08.318Z,21.4
2019-01-12T00:45:58.072Z,20.9
2019-01-12T00:46:48.403Z,20.4
2019-01-12T00:47:40.385Z,20.1
2019-01-12T00:48:28.281Z,19.8
2019-01-12T00:49:18.893Z,19.6
2019-01-12T00:50:08.347Z,19.4
2019-01-12T00:50:59.022Z,19.3
2019-01-12T00:51:48.512Z,19.1
2019-01-12T00:52:38.308Z,19.1
2019-01-12T00:53:27.853Z,18.9
2019-01-12T00:54:18.685Z,18.8
2019-01-12T00:55:08.977Z,18.8
2019-01-12T00:55:59.040Z,18.6
2019-01-12T00:56:48.807Z,18.5
2019-01-12T00:57:39.437Z,18.4
2019-01-12T00:58:29.188Z,18.3
2019-01-12T00:59:19.342Z,18.2
2019-01-12T01:00:09.927Z,18.1
2019-01-12T01:00:59.174Z,18
2019-01-12T01:01:49.272Z,17.9
2019-01-12T01:02:38.505Z,17.8
2019-01-12T01:03:28.782Z,17.8
2019-01-12T01:04:19.647Z,17.7
2019-01-12T01:05:08.665Z,17.7
2019-01-12T01:05:58.969Z,17.7
2019-01-12T01:06:48.447Z,17.8
2019-01-12T01:07:40.077Z,18
2019-01-12T01:08:29.310Z,18.4
2019-01-12T01:09:19.814Z,18.8
2019-01-12T01:10:09.868Z,19.1
2019-01-12T01:10:59.784Z,19.4
2019-01-12T01:11:49.545Z,19.6
2019-01-12T01:12:40.159Z,19.8
2019-01-12T01:13:30.257Z,19.9
2019-01-12T01:14:20.826Z,20.1
2019-01-12T01:15:10.969Z,20.2
2019-01-12T01:15:59.065Z,20.3
2019-01-12T01:16:50.252Z,20.4
2019-01-12T01:17:40.306Z,20.5
2019-01-12T01:18:30.121Z,20.6
2019-01-12T01:19:19.574Z,20.6
2019-01-12T01:20:10.731Z,20.7
2019-01-12T01:21:00.437Z,20.8
2019-01-12T01:21:50.236Z,20.8
2019-01-12T01:22:41.134Z,20.9
2019-01-12T01:23:30.883Z,20.9
2019-01-12T01:24:20.665Z,20.9
2019-01-12T01:25:11.406Z,21
2019-01-12T01:26:01.665Z,21.1
2019-01-12T01:26:51.663Z,21
2019-01-12T01:27:40.942Z,20.5
2019-01-12T01:28:31.521Z,19.8
2019-01-12T01:29:21.857Z,19
2019-01-12T01:30:11.368Z,18.4
2019-01-12T01:31:01.183Z,18.3
2019-01-12T01:31:51.206Z,18.3
2019-01-12T01:32:41.593Z,18.8
2019-01-12T01:33:36.265Z,19.1
2019-01-12T01:34:21.927Z,19.4
2019-01-12T01:35:11.190Z,19.6
2019-01-12T01:36:02.295Z,19.8
2019-01-12T01:36:52.080Z,19.9
2019-01-12T01:37:42.686Z,20.1
2019-01-12T01:38:31.695Z,20.2
2019-01-12T01:39:21.972Z,20.3
2019-01-12T01:40:11.743Z,20.4
2019-01-12T01:41:02.454Z,20.4
2019-01-12T01:41:51.382Z,20.5
2019-01-12T01:42:41.750Z,20.6
2019-01-12T01:43:31.772Z,20.6
2019-01-12T01:44:21.339Z,20.7
2019-01-12T01:45:12.209Z,20.8
2019-01-12T01:46:01.988Z,20.8
2019-01-12T01:46:52.222Z,20.9
2019-01-12T01:47:42.866Z,20.9
2019-01-12T01:48:33.149Z,20.9
2019-01-12T01:49:22.647Z,20.9
2019-01-12T01:50:13.241Z,21
2019-01-12T01:51:02.597Z,20.7
2019-01-12T01:51:52.339Z,20.3
2019-01-12T01:52:42.381Z,19.9
2019-01-12T01:53:32.107Z,19.6
2019-01-12T01:54:23.794Z,19.4
2019-01-12T01:55:12.816Z,19.2
2019-01-12T01:56:02.819Z,19.1
2019-01-12T01:56:52.369Z,18.9
2019-01-12T01:57:43.526Z,18.8
2019-01-12T01:58:33.294Z,18.8
2019-01-12T01:59:23.321Z,18.6
2019-01-12T02:00:13.398Z,18.6
2019-01-12T02:01:04.011Z,18.6
2019-01-12T02:01:53.293Z,18.4
2019-01-12T02:02:43.541Z,18.3
2019-01-12T02:03:34.179Z,18.2
2019-01-12T02:04:23.939Z,18.1
2019-01-12T02:05:13.164Z,18
2019-01-12T02:06:02.448Z,17.9
2019-01-12T02:06:54.398Z,17.9
2019-01-12T02:07:44.481Z,17.8
2019-01-12T02:08:34.569Z,17.7
2019-01-12T02:09:24.256Z,17.7
2019-01-12T02:10:14.927Z,17.9
2019-01-12T02:11:03.634Z,18.3
2019-01-12T02:12:44.303Z,18.9
2019-01-12T02:13:33.754Z,19.3
2019-01-12T02:14:25.823Z,19.4
2019-01-12T02:15:14.198Z,19.6
2019-01-12T02:16:04.455Z,19.8
2019-01-12T02:16:53.963Z,19.9
2019-01-12T02:17:44.663Z,19.9
2019-01-12T02:18:34.353Z,20.1
2019-01-12T02:19:24.735Z,20.1
2019-01-12T02:20:14.547Z,20.3
2019-01-12T02:21:04.807Z,20.3
2019-01-12T02:21:55.121Z,20.3
2019-01-12T02:22:45.479Z,20.4
2019-01-12T02:23:34.957Z,20.5
2019-01-12T02:24:25.343Z,20.5
2019-01-12T02:25:15.372Z,20.6
2019-01-12T02:26:05.982Z,20.6
2019-01-12T02:26:54.416Z,20.6
2019-01-12T02:27:45.245Z,20.7
2019-01-12T02:28:36.142Z,20.7
2019-01-12T02:29:25.355Z,20.8
2019-01-12T02:30:15.212Z,20.8
2019-01-12T02:31:06.087Z,20.8
2019-01-12T02:31:55.330Z,20.8
2019-01-12T02:32:46.019Z,20.9
2019-01-12T02:33:35.956Z,20.9
2019-01-12T02:34:25.604Z,20.6
2019-01-12T02:35:15.850Z,20.2
2019-01-12T02:36:05.564Z,19.8
2019-01-12T02:36:56.849Z,19.6
2019-01-12T02:37:46.530Z,19.3
2019-01-12T02:38:36.301Z,19.1
2019-01-12T02:39:26.714Z,19
2019-01-12T02:40:16.009Z,18.9
2019-01-12T02:41:05.466Z,18.8
2019-01-12T02:41:56.519Z,18.6
2019-01-12T02:42:46.045Z,18.6
2019-01-12T02:43:35.529Z,18.5
2019-01-12T02:44:26.706Z,18.4
2019-01-12T02:45:16.238Z,18.3
2019-01-12T02:46:06.893Z,18.2
2019-01-12T02:46:56.308Z,18.1
2019-01-12T02:47:46.676Z,18
2019-01-12T02:48:36.964Z,17.9
2019-01-12T02:49:27.342Z,17.8
2019-01-12T02:50:17.415Z,17.8
2019-01-12T02:51:06.592Z,17.8
2019-01-12T02:51:56.680Z,18.2
2019-01-12T02:52:46.723Z,18.5
2019-01-12T02:53:37.618Z,18.8
2019-01-12T02:54:27.092Z,19.1
2019-01-12T02:55:17.650Z,19.3
2019-01-12T02:56:07.533Z,19.4
2019-01-12T02:56:57.813Z,19.6
2019-01-12T02:57:47.245Z,19.7
2019-01-12T02:58:37.959Z,19.8
2019-01-12T02:59:27.728Z,19.9
2019-01-12T03:00:18.428Z,20
2019-01-12T03:01:07.350Z,20.1
2019-01-12T03:01:58.125Z,20.2
2019-01-12T03:02:47.677Z,20.3
2019-01-12T03:03:37.737Z,20.3
2019-01-12T03:04:27.627Z,20.3
2019-01-12T03:05:17.882Z,20.4
2019-01-12T03:06:08.520Z,20.4
2019-01-12T03:06:57.939Z,20.4
2019-01-12T03:07:46.709Z,20.5
2019-01-12T03:08:38.362Z,20.5
2019-01-12T03:09:27.819Z,20.6
2019-01-12T03:10:18.537Z,20.2
2019-01-12T03:11:08.799Z,19.7
2019-01-12T03:11:59.107Z,19
2019-01-12T03:12:47.795Z,18.4
2019-01-12T03:13:39.014Z,17.8
2019-01-12T03:14:27.972Z,17.2
2019-01-12T03:16:59.201Z,17.4
2019-01-12T03:17:48.470Z,17.9
2019-01-12T03:18:39.302Z,18.4
2019-01-12T03:19:29.428Z,18.8
2019-01-12T03:20:18.895Z,19
2019-01-12T03:21:09.561Z,19.3
2019-01-12T03:21:59.881Z,19.4
2019-01-12T03:22:49.143Z,19.6
2019-01-12T03:23:39.131Z,19.8
2019-01-12T03:24:29.256Z,19.9
2019-01-12T03:25:28.236Z,19.9
2019-01-12T03:26:09.025Z,20
2019-01-12T03:26:59.046Z,20.1
2019-01-12T03:27:48.902Z,20.2
2019-01-12T03:28:39.216Z,20.3
2019-01-12T03:29:29.423Z,20.3
2019-01-12T03:30:20.329Z,20.4
2019-01-12T03:31:10.511Z,20.4
2019-01-12T03:32:00.350Z,20.5
2019-01-12T03:32:49.489Z,20.6
2019-01-12T03:33:40.427Z,20.6
2019-01-12T03:34:29.797Z,20.6
2019-01-12T03:35:20.410Z,20.6
2019-01-12T03:36:09.720Z,20.7
2019-01-12T03:36:59.692Z,20.7
2019-01-12T03:37:50.343Z,20.8
2019-01-12T03:38:39.103Z,20.8
2019-01-12T03:39:30.133Z,20.8
2019-01-12T03:40:20.912Z,20.6
2019-01-12T03:41:10.877Z,20.1
2019-01-12T03:41:59.545Z,19.8
2019-01-12T03:42:50.418Z,19.5
2019-01-12T03:43:40.432Z,19.3
2019-01-12T03:44:30.659Z,19.1
2019-01-12T03:45:20.896Z,18.9
2019-01-12T03:46:10.717Z,18.8
2019-01-12T03:47:01.199Z,18.6
2019-01-12T03:47:51.358Z,18.6
2019-01-12T03:48:40.812Z,18.4
2019-01-12T03:49:31.127Z,18.4
2019-01-12T03:50:20.917Z,18.3
2019-01-12T03:51:09.639Z,18.2
2019-01-12T03:52:01.242Z,18.1
2019-01-12T03:52:51.646Z,18.1
2019-01-12T03:53:40.891Z,17.9
2019-01-12T03:54:30.602Z,17.8
2019-01-12T03:55:29.340Z,17.8
2019-01-12T03:56:10.750Z,17.8
2019-01-12T03:57:01.366Z,18
2019-01-12T03:57:51.703Z,18.4
2019-01-12T03:59:31.489Z,18.9
2019-01-12T04:00:22.156Z,19.2
2019-01-12T04:01:12.259Z,19.3
2019-01-12T04:02:01.725Z,19.4
2019-01-12T04:02:52.294Z,19.6
2019-01-12T04:03:42.101Z,19.8
2019-01-12T04:04:31.923Z,19.8
2019-01-12T04:05:21.921Z,19.9
2019-01-12T04:06:12.505Z,20
2019-01-12T04:07:02.008Z,20.1
2019-01-12T04:07:52.356Z,20.1
2019-01-12T04:08:42.210Z,20.2
2019-01-12T04:09:32.200Z,20.3
2019-01-12T04:10:22.353Z,20.3
2019-01-12T04:11:12.645Z,20.3
2019-01-12T04:12:02.634Z,20.4
2019-01-12T04:12:52.724Z,20.4
2019-01-12T04:13:43.019Z,20.4
2019-01-12T04:14:32.529Z,20.5
2019-01-12T04:15:22.633Z,20.5
2019-01-12T04:16:12.625Z,20.6
2019-01-12T04:17:02.985Z,20.6
2019-01-12T04:17:53.100Z,20.6
2019-01-12T04:18:43.057Z,20.7
2019-01-12T04:19:33.153Z,20.7
2019-01-12T04:20:22.689Z,20.7
2019-01-12T04:21:12.137Z,20.8
2019-01-12T04:22:03.575Z,20.8
2019-01-12T04:22:53.710Z,20.8
2019-01-12T04:23:42.910Z,20.7
2019-01-12T04:24:33.805Z,20.3
2019-01-12T04:25:41.510Z,19.9
2019-01-12T04:26:12.757Z,19.4
2019-01-12T04:27:03.667Z,19.3
2019-01-12T04:27:53.194Z,19.1
2019-01-12T04:28:43.317Z,18.9
2019-01-12T04:29:33.325Z,18.8
2019-01-12T04:31:13.041Z,18.6
2019-01-12T04:32:03.505Z,18.4
2019-01-12T04:32:52.552Z,18.4
2019-01-12T04:33:43.061Z,18.3
2019-01-12T04:34:33.715Z,18.3
2019-01-12T04:35:24.505Z,18.6
2019-01-12T04:36:14.042Z,18.9
2019-01-12T04:37:03.742Z,19.1
2019-01-12T04:37:54.381Z,19.4
2019-01-12T04:38:43.641Z,19.6
2019-01-12T04:39:35.075Z,19.7
2019-01-12T04:40:24.348Z,19.8
2019-01-12T04:41:14.356Z,19.9
2019-01-12T04:42:04.396Z,19.9
2019-01-12T04:42:54.256Z,20
2019-01-12T04:43:44.749Z,20.1
2019-01-12T04:44:34.246Z,20.1
2019-01-12T04:45:24.883Z,20.2
2019-01-12T04:46:15.298Z,19.8
2019-01-12T05:03:28.702Z,20.2
2019-01-12T05:04:18.219Z,20.3
2019-01-12T05:05:09.215Z,20.3
2019-01-12T05:06:42.556Z,20.4
2019-01-12T05:07:10.434Z,20.4
2019-01-12T05:08:15.147Z,20.5
2019-01-12T05:08:51.738Z,20.6
2019-01-12T05:09:24.522Z,20.6
2019-01-12T05:10:16.057Z,20.6
2019-01-12T05:11:04.938Z,20.7
2019-01-12T05:12:42.739Z,20.8
2019-01-12T05:12:54.382Z,20.8
2019-01-12T05:13:59.210Z,20.8
2019-01-12T05:14:38.361Z,20.8
2019-01-12T05:15:38.945Z,20.8
2019-01-12T05:16:30.157Z,20.9
2019-01-12T05:17:19.113Z,20.7
2019-01-12T05:17:54.966Z,20.3
2019-01-12T05:18:45.670Z,20
2019-01-12T05:20:18.527Z,19.6
2019-01-12T05:20:31.031Z,19.2
2019-01-12T05:21:50.169Z,19.1
2019-01-12T05:23:15.872Z,18.8
2019-01-12T09:17:51.283Z,16
2019-01-12T09:18:41.311Z,15.9
2019-01-12T09:19:31.678Z,15.8
2019-01-12T09:20:21.648Z,15.8
2019-01-12T09:21:11.490Z,15.7
2019-01-12T09:22:01.030Z,15.6
2019-01-12T09:22:51.855Z,15.6
2019-01-12T09:23:41.938Z,15.5
2019-01-12T09:24:31.681Z,15.4
2019-01-12T09:25:22.065Z,15.4
2019-01-12T09:26:12.120Z,15.3
2019-01-12T09:27:01.858Z,15.3
2019-01-12T09:27:51.940Z,15.2
2019-01-12T09:28:42.035Z,15.1
2019-01-12T09:29:32.302Z,15.1
2019-01-12T09:30:21.284Z,15.1
2019-01-12T09:31:11.852Z,15
2019-01-12T09:32:01.350Z,14.9
2019-01-12T09:32:52.547Z,14.9
2019-01-12T09:33:42.092Z,14.9
2019-01-12T09:34:32.459Z,14.8
2019-01-12T09:35:22.724Z,14.8
2019-01-12T09:36:12.512Z,14.7
2019-01-12T09:37:01.779Z,14.6
2019-01-12T09:37:52.192Z,14.6
2019-01-12T09:38:41.617Z,14.6
2019-01-12T09:39:32.516Z,14.6
2019-01-12T09:40:23.439Z,14.5
2019-01-12T09:41:12.830Z,14.4
2019-01-12T09:42:03.157Z,14.4
2019-01-12T09:42:53.523Z,14.3
2019-01-12T09:43:42.983Z,14.3
2019-01-12T09:44:33.218Z,14.3
2019-01-12T09:45:23.205Z,14.2
2019-01-12T09:46:12.687Z,14.2
2019-01-12T09:47:02.513Z,14.1
2019-01-12T09:47:52.823Z,14.1
2019-01-12T09:48:42.628Z,14.1
2019-01-12T09:49:32.668Z,14.1
2019-01-12T09:50:21.453Z,14.6
2019-01-12T09:51:13.314Z,15.4
2019-01-12T09:52:03.372Z,16.1
2019-01-12T09:52:53.495Z,16.6
2019-01-12T09:53:43.757Z,17.2
2019-01-12T09:54:33.590Z,17.6
2019-01-12T09:55:22.499Z,18
2019-01-12T09:56:13.582Z,18.3
2019-01-12T09:57:04.202Z,18.6
2019-01-12T09:57:53.535Z,18.9
2019-01-12T09:58:43.809Z,19.1
2019-01-12T09:59:35.976Z,19.2
2019-01-12T10:00:23.615Z,19.3
2019-01-12T10:01:13.904Z,19.4
2019-01-12T10:02:04.671Z,19.6
2019-01-12T10:02:54.512Z,19.6
2019-01-12T10:03:43.043Z,19.8
2019-01-12T10:04:34.706Z,19.8
2019-01-12T10:05:23.760Z,19.9
2019-01-12T10:06:14.060Z,20
2019-01-12T10:07:04.377Z,20
2019-01-12T10:07:54.709Z,20.1
2019-01-12T10:08:44.147Z,20.1
2019-01-12T10:09:35.035Z,20.2
2019-01-12T10:10:25.849Z,20.3
2019-01-12T10:11:14.392Z,20.3
2019-01-12T10:12:04.474Z,20.4
2019-01-12T10:12:54.573Z,20.4
2019-01-12T10:13:43.733Z,20.4
2019-01-12T10:14:34.343Z,20.4
2019-01-12T10:15:24.968Z,20.4
2019-01-12T10:16:14.730Z,20.5
2019-01-12T10:17:05.248Z,20.6
2019-01-12T10:17:54.886Z,20.6
2019-01-12T10:18:44.103Z,20.6
2019-01-12T10:19:34.395Z,20.6
2019-01-12T10:20:25.793Z,20.7
2019-01-12T10:21:14.658Z,20.8
2019-01-12T10:22:04.898Z,20.9
2019-01-12T10:22:54.603Z,21.1
2019-01-12T10:23:44.635Z,21.1
2019-01-12T10:24:36.055Z,20.9
2019-01-12T10:25:26.402Z,20.9
2019-01-12T10:26:16.192Z,20.9
2019-01-12T10:27:07.363Z,20.9
2019-01-12T10:27:56.318Z,20.9
2019-01-12T10:28:46.095Z,20.9
2019-01-12T10:29:36.182Z,21
2019-01-12T10:30:25.958Z,21.1
2019-01-12T10:31:15.825Z,21
2019-01-12T10:32:06.002Z,21.1
2019-01-12T10:32:56.826Z,21.1
2019-01-12T10:33:46.740Z,21.1
2019-01-12T10:37:56.424Z,21.2
2019-01-12T10:39:36.802Z,21.2
2019-01-12T10:40:25.887Z,21.2
2019-01-12T10:41:17.541Z,20.8
2019-01-12T10:42:06.662Z,20.3
2019-01-12T10:42:57.621Z,19.9
2019-01-12T10:43:46.544Z,19.6
2019-01-12T10:44:37.438Z,19.3
2019-01-12T10:45:27.199Z,19
2019-01-12T10:46:16.694Z,18.8
2019-01-12T10:47:57.926Z,18.6
2019-01-12T10:48:47.141Z,18.4
2019-01-12T10:49:36.927Z,18.3
2019-01-12T10:50:27.284Z,18.3
2019-01-12T10:51:17.108Z,18.8
2019-01-12T10:52:07.383Z,19.1
2019-01-12T10:52:57.711Z,19.3
2019-01-12T10:55:13.993Z,19.8
2019-01-12T10:56:03.253Z,19.9
2019-01-12T10:56:54.226Z,20
2019-01-12T10:57:43.950Z,20.1
2019-01-12T10:58:33.711Z,20.2
2019-01-12T10:59:23.453Z,20.3
2019-01-12T11:00:12.791Z,20.4
2019-01-12T11:01:03.616Z,20.4
2019-01-12T11:01:53.935Z,19.9
2019-01-12T11:02:43.715Z,19.3
2019-01-12T11:03:34.050Z,18.5
2019-01-12T11:04:24.921Z,17.9
2019-01-12T11:05:13.918Z,17.3
2019-01-12T11:06:04.221Z,16.8
2019-01-12T11:06:54.889Z,16.8
2019-01-12T11:07:45.946Z,17.1
2019-01-12T11:08:34.185Z,17.6
2019-01-12T11:09:23.365Z,18.1
2019-01-12T11:10:14.300Z,18.4
2019-01-12T11:11:03.781Z,18.8
2019-01-12T11:11:54.433Z,19.1
2019-01-12T11:12:44.440Z,19.3
2019-01-12T11:13:35.045Z,19.5
2019-01-12T11:14:25.110Z,19.6
2019-01-12T11:15:16.310Z,19.8
2019-01-12T11:16:04.663Z,19.9
2019-01-12T11:16:54.263Z,19.9
2019-01-12T11:17:44.582Z,20.1
2019-01-12T11:18:34.882Z,20.2
2019-01-12T11:19:24.279Z,20.3
2019-01-12T11:20:14.957Z,20.3
2019-01-12T11:21:05.775Z,20.4
2019-01-12T11:21:55.534Z,20.4
2019-01-12T11:22:45.328Z,20.6
2019-01-12T11:23:35.372Z,20.6
2019-01-12T11:24:25.157Z,20.6
2019-01-12T11:25:16.064Z,20.7
2019-01-12T11:26:05.849Z,20.8
2019-01-12T11:26:55.634Z,20.8
2019-01-12T11:27:45.402Z,20.8
2019-01-12T11:28:35.737Z,20.9
2019-01-12T11:29:25.769Z,20.9
2019-01-12T11:30:16.151Z,20.9
2019-01-12T11:31:05.914Z,20.9
2019-01-12T11:31:55.729Z,21
2019-01-12T11:32:46.286Z,21
2019-01-12T11:34:25.936Z,21.1
2019-01-12T11:35:15.958Z,21.2
2019-01-12T11:36:05.477Z,21.2
2019-01-12T11:36:55.102Z,20.8
2019-01-12T11:37:45.496Z,20.4
2019-01-12T11:38:35.194Z,19.9
2019-01-12T11:39:25.323Z,19.6
2019-01-12T11:40:15.838Z,19.3
2019-01-12T11:41:05.672Z,19.1
2019-01-12T11:41:56.376Z,18.9
2019-01-12T11:42:46.743Z,18.8
2019-01-12T11:43:36.273Z,18.6
2019-01-12T11:44:26.590Z,18.4
2019-01-12T11:45:16.935Z,18.4
2019-01-12T11:46:06.965Z,18.3
2019-01-12T11:46:57.833Z,18.5
2019-01-12T11:47:46.525Z,18.9
2019-01-12T11:48:36.826Z,19.3
2019-01-12T11:49:27.442Z,19.6
2019-01-12T11:50:17.303Z,19.8
2019-01-12T11:51:07.543Z,19.9
2019-01-12T11:51:57.035Z,20
2019-01-12T11:52:47.988Z,20.1
2019-01-12T11:53:37.262Z,20.3
2019-01-12T11:54:27.247Z,20.3
2019-01-12T11:55:17.867Z,20.4
2019-01-12T11:56:07.338Z,20.4
2019-01-12T11:56:57.462Z,20.5
2019-01-12T11:57:48.159Z,20.5
2019-01-12T11:58:39.075Z,20.6
2019-01-12T11:59:27.690Z,20.7
2019-01-12T12:00:17.435Z,20.7
2019-01-12T12:01:06.528Z,20.7
2019-01-12T12:01:57.535Z,20.8
2019-01-12T12:02:47.921Z,20.8
2019-01-12T12:03:36.930Z,20.9
2019-01-12T12:04:26.954Z,20.9
2019-01-12T12:05:18.868Z,20.9
2019-01-12T12:06:07.360Z,20.9
2019-01-12T12:06:57.689Z,21.1
2019-01-12T12:07:47.714Z,21.1
2019-01-12T12:08:38.221Z,20.8
2019-01-12T12:09:29.119Z,20.3
2019-01-12T12:10:18.868Z,19.9
2019-01-12T12:11:08.389Z,19.6
2019-01-12T12:11:59.261Z,19.4
2019-01-12T12:12:49.326Z,19.2
2019-01-12T12:13:39.641Z,19
2019-01-12T12:14:29.167Z,18.8
2019-01-12T12:16:11.809Z,18.6
2019-01-12T12:16:59.335Z,18.4
2019-01-12T12:17:49.984Z,18.3
2019-01-12T12:18:39.988Z,18.3
2019-01-12T12:20:20.173Z,19.1
2019-01-12T12:21:09.941Z,19.4
2019-01-12T12:21:59.998Z,19.8
2019-01-12T12:22:50.005Z,19.9
2019-01-12T12:23:38.663Z,20
2019-01-12T12:24:29.859Z,20.3
2019-01-12T12:25:19.648Z,20.3
2019-01-12T12:26:10.043Z,20.4
2019-01-12T12:27:00.150Z,20.5
2019-01-12T12:27:49.810Z,20.6
2019-01-12T12:28:39.070Z,20.7
2019-01-12T12:29:29.940Z,20.7
2019-01-12T12:30:19.697Z,20.3
2019-01-12T12:31:10.020Z,19.6
2019-01-12T12:32:00.462Z,18.8
2019-01-12T12:32:50.760Z,18.1
2019-01-12T12:33:38.830Z,17.8
2019-01-12T12:34:30.051Z,17.8
2019-01-12T12:35:20.899Z,18.1
2019-01-12T12:36:09.837Z,18.6
2019-01-12T12:37:00.482Z,19
2019-01-12T12:37:50.247Z,19.3
2019-01-12T12:38:40.824Z,19.5
2019-01-12T12:39:30.902Z,19.7
2019-01-12T12:40:19.712Z,19.9
2019-01-12T12:41:10.837Z,20
2019-01-12T12:42:00.462Z,20.1
2019-01-12T12:42:51.435Z,20.2
2019-01-12T12:43:41.222Z,20.3
2019-01-12T12:44:31.861Z,20.4
2019-01-12T12:45:20.840Z,20.5
2019-01-12T12:46:11.699Z,20.6
2019-01-12T12:47:01.212Z,20.6
2019-01-12T12:47:51.803Z,20.6
2019-01-12T12:48:41.859Z,20.7
2019-01-12T12:49:31.579Z,20.7
2019-01-12T12:50:20.841Z,20.8
2019-01-12T12:51:11.149Z,20.8
2019-01-12T12:52:01.604Z,20.8
2019-01-12T12:52:51.274Z,20.9
2019-01-12T12:53:43.040Z,20.9
2019-01-12T12:54:31.433Z,21
2019-01-12T12:55:21.488Z,20.9
2019-01-12T12:56:12.326Z,21
2019-01-12T12:57:00.458Z,21
2019-01-12T12:57:51.946Z,20.7
2019-01-12T12:58:41.708Z,20.3
2019-01-12T12:59:31.864Z,19.9
2019-01-12T13:00:21.873Z,19.6
2019-01-12T13:01:12.671Z,19.3
2019-01-12T13:02:02.783Z,19.1
2019-01-12T13:02:52.516Z,18.9
2019-01-12T13:03:42.305Z,18.8
2019-01-12T13:04:33.083Z,18.6
2019-01-12T13:05:21.878Z,18.5
2019-01-12T13:06:12.195Z,18.6
2019-01-12T13:07:02.318Z,19.1
2019-01-12T13:07:53.131Z,19.4
2019-01-12T13:08:49.997Z,19.8
2019-01-12T13:09:32.767Z,19.9
2019-01-12T13:10:23.330Z,20.1
2019-01-12T13:11:12.033Z,20.1
2019-01-12T13:12:02.886Z,20.3
2019-01-12T13:12:53.012Z,20.4
2019-01-12T13:13:43.270Z,20.4
2019-01-12T13:14:33.370Z,20.6
2019-01-12T13:15:23.193Z,20.6
2019-01-12T13:16:13.747Z,20.6
2019-01-12T13:17:03.262Z,20.6
2019-01-12T13:17:52.197Z,20.7
2019-01-12T13:18:43.354Z,20.8
2019-01-12T13:19:32.922Z,20.8
2019-01-12T13:20:24.949Z,20.8
2019-01-12T13:21:13.557Z,20.9
2019-01-12T13:22:03.589Z,20.9
2019-01-12T13:22:55.009Z,21
2019-01-12T13:23:43.993Z,21.1
2019-01-12T13:24:34.051Z,21.1
2019-01-12T13:25:23.602Z,21.1
2019-01-12T13:26:14.489Z,20.6
2019-01-12T13:27:04.841Z,20.1
2019-01-12T13:27:53.714Z,19.8
2019-01-12T13:28:44.039Z,19.5
2019-01-12T13:29:34.084Z,19.3
2019-01-12T13:30:24.439Z,19.1
2019-01-12T13:31:13.659Z,18.9
2019-01-12T13:32:04.336Z,18.8
2019-01-12T13:33:43.876Z,18.9
2019-01-12T13:34:34.443Z,19.3
2019-01-12T13:35:24.263Z,19.6
2019-01-12T13:36:14.561Z,19.9
2019-01-12T13:37:04.876Z,20
2019-01-12T13:37:55.551Z,20.1
2019-01-12T13:38:44.173Z,20.3
2019-01-12T13:39:40.415Z,20.3
2019-01-12T13:40:26.391Z,20.4
2019-01-12T13:41:15.296Z,20.5
2019-01-12T13:42:04.200Z,20.6
2019-01-12T13:42:54.500Z,20.7
2019-01-12T13:43:45.350Z,20.7
2019-01-12T13:44:35.143Z,20.6
2019-01-12T13:45:25.738Z,20.6
2019-01-12T13:46:15.235Z,20.4
2019-01-12T13:47:05.583Z,20.4
2019-01-12T13:47:55.942Z,20.3
2019-01-12T13:48:45.803Z,20.1
2019-01-12T13:49:35.755Z,20.1
2019-01-12T13:50:24.510Z,19.9
2019-01-12T13:51:15.867Z,19.8
2019-01-12T13:52:05.690Z,19.6
2019-01-12T13:52:56.580Z,19.5
2019-01-12T13:53:44.730Z,19.4
2019-01-12T13:54:36.560Z,19.3
2019-01-12T13:55:26.519Z,19.1
2019-01-12T13:56:15.375Z,19
2019-01-12T13:57:06.257Z,18.9
2019-01-12T13:57:56.910Z,18.8
2019-01-12T13:58:46.948Z,18.6
2019-01-12T13:59:36.195Z,18.5
2019-01-12T14:00:26.019Z,18.4
2019-01-12T14:01:16.565Z,18.3
2019-01-12T14:02:06.917Z,18.2
2019-01-12T14:02:56.604Z,18.1
2019-01-12T14:03:46.787Z,18.1
2019-01-12T14:04:36.258Z,17.9
2019-01-12T14:05:27.173Z,17.9
2019-01-12T14:06:17.162Z,17.8
2019-01-12T14:07:08.537Z,17.7
2019-01-12T14:08:04.516Z,17.6
2019-01-12T14:08:46.500Z,17.5
2019-01-12T14:09:49.811Z,17.4
2019-01-12T14:10:26.679Z,17.3
2019-01-12T14:11:16.241Z,17.2
2019-01-12T14:12:06.071Z,17.1
2019-01-12T14:12:56.409Z,17.1
2019-01-12T14:14:37.268Z,16.9
2019-01-12T14:15:26.503Z,16.8
2019-01-12T14:16:16.711Z,16.8
2019-01-12T14:17:07.958Z,16.7
2019-01-12T14:17:57.733Z,16.6
2019-01-12T14:18:47.553Z,16.5
2019-01-12T14:19:38.101Z,16.4
2019-01-12T14:20:27.911Z,16.4
2019-01-12T14:21:17.985Z,16.3
2019-01-12T14:22:08.036Z,16.3
2019-01-12T14:22:57.772Z,16.1
2019-01-12T14:23:47.825Z,16.1
2019-01-12T14:24:38.213Z,16
2019-01-12T14:25:29.771Z,15.9
2019-01-12T14:26:17.721Z,15.9
2019-01-12T14:27:07.778Z,15.8
2019-01-12T14:28:02.513Z,15.8
2019-01-12T14:28:46.815Z,15.8
2019-01-12T14:29:38.498Z,15.7
2019-01-12T14:30:28.543Z,15.6
2019-01-12T14:31:18.900Z,15.6
2019-01-12T14:32:08.932Z,15.5
2019-01-12T14:32:59.063Z,15.4
2019-01-12T14:33:48.827Z,15.4
2019-01-12T14:34:38.597Z,15.3
2019-01-12T14:35:28.365Z,15.3
2019-01-12T14:36:18.435Z,15.2
2019-01-12T14:37:08.474Z,15.2
2019-01-12T14:37:59.097Z,15.1
2019-01-12T14:38:48.637Z,15.1
2019-01-12T14:39:38.631Z,15
2019-01-12T14:40:29.570Z,14.9
2019-01-12T14:41:18.657Z,14.9
2019-01-12T14:42:09.084Z,14.8
2019-01-12T14:42:59.425Z,14.8
2019-01-12T14:43:49.480Z,14.8
2019-01-12T14:44:38.277Z,14.7
2019-01-12T14:45:29.024Z,14.6
2019-01-12T14:46:19.099Z,14.6
2019-01-12T14:47:09.369Z,14.5
2019-01-12T14:47:59.296Z,14.5
2019-01-12T14:48:49.569Z,14.4
2019-01-12T14:49:39.895Z,14.4
2019-01-12T14:50:29.365Z,14.4
2019-01-12T14:51:19.819Z,14.3
2019-01-12T14:52:09.279Z,14.3
2019-01-12T14:52:59.291Z,14.2
2019-01-12T14:53:49.911Z,14.2
2019-01-12T14:54:40.501Z,14.1
2019-01-12T14:55:30.309Z,14.1
2019-01-12T14:56:19.313Z,14
2019-01-12T14:57:10.136Z,13.9
2019-01-12T14:58:08.918Z,13.9
2019-01-12T14:58:50.113Z,13.9
2019-01-12T14:59:39.657Z,13.9
2019-01-12T15:00:29.946Z,13.8
2019-01-12T15:01:21.018Z,13.9
2019-01-12T15:02:09.446Z,13.8
2019-01-12T15:03:00.022Z,13.8
2019-01-12T15:03:50.997Z,13.8
2019-01-12T15:04:40.874Z,13.7
2019-01-12T15:05:31.683Z,13.6
2019-01-12T15:06:21.168Z,13.6
2019-01-12T15:07:11.333Z,13.6
2019-01-12T15:08:01.175Z,13.6
2019-01-12T15:08:51.208Z,13.5
2019-01-12T15:09:41.245Z,13.5
2019-01-12T15:10:29.805Z,13.4
2019-01-12T15:11:20.543Z,13.4
2019-01-12T15:12:11.688Z,13.4
2019-01-12T15:13:01.488Z,13.4
2019-01-12T15:13:51.868Z,13.4
2019-01-12T15:14:42.137Z,13.4
2019-01-12T15:15:31.367Z,13.4
2019-01-12T15:16:21.685Z,13.4
2019-01-12T15:17:26.400Z,13.4
2019-01-12T15:18:01.247Z,13.4
2019-01-12T15:18:52.130Z,13.4
2019-01-12T15:19:41.613Z,13.3
2019-01-12T15:20:31.989Z,13.3
2019-01-12T15:21:20.925Z,13.3
2019-01-12T15:22:12.376Z,13.3
2019-01-12T15:23:02.431Z,13.2
2019-01-12T15:23:52.536Z,13.3
2019-01-12T15:24:42.525Z,13.3
2019-01-12T15:25:32.335Z,13.3
2019-01-12T15:26:21.609Z,13.2
2019-01-12T15:27:11.971Z,13.2
2019-01-12T15:28:09.707Z,13.3
2019-01-12T15:28:52.341Z,13.3
2019-01-12T15:29:42.130Z,13.3
2019-01-12T15:30:32.698Z,13.3
2019-01-12T15:31:25.043Z,13.3
2019-01-12T15:32:13.310Z,13.2
2019-01-12T15:33:02.555Z,13.3
2019-01-12T15:33:52.381Z,13.3
2019-01-12T15:34:42.920Z,13.3
2019-01-12T15:35:31.970Z,13.3
2019-01-12T15:36:22.835Z,13.3
2019-01-12T15:37:13.085Z,13.3
2019-01-12T15:38:03.217Z,13.3
2019-01-12T15:38:53.227Z,13.4
2019-01-12T15:39:43.258Z,13.4
2019-01-12T15:40:32.757Z,13.4
2019-01-12T15:41:23.098Z,13.5
2019-01-12T15:42:12.639Z,13.5
2019-01-12T15:43:03.474Z,13.6
2019-01-12T15:43:53.050Z,13.6
2019-01-12T15:44:42.764Z,13.6
2019-01-12T15:45:33.955Z,13.6
2019-01-12T15:46:23.717Z,13.6
2019-01-12T15:47:12.777Z,13.7
2019-01-12T15:48:03.297Z,13.7
2019-01-12T15:48:53.382Z,13.7
2019-01-12T15:49:44.217Z,13.8
2019-01-12T15:50:33.225Z,13.8
2019-01-12T15:51:24.048Z,13.8
2019-01-12T15:52:14.122Z,13.8
2019-01-12T15:53:05.693Z,13.8
2019-01-12T15:53:53.939Z,13.8